createdAt,value
2023-05-05T00:00:22.170Z,101945.19
2023-05-05T00:03:11.140Z,101945.16
2023-05-05T00:05:40.611Z,101945.25
2023-05-05T00:08:10.769Z,101946.25
2023-05-05T00:10:39.913Z,101948.91
2023-05-05T00:13:08.709Z,101953.31
2023-05-05T00:15:37.995Z,101956.03
2023-05-05T00:18:06.995Z,101951.59
2023-05-05T00:20:36.254Z,101952.44
2023-05-05T00:23:05.162Z,101948.94
2023-05-05T00:25:35.742Z,101954.13
2023-05-05T00:28:04.733Z,101961.22
2023-05-05T00:30:34.378Z,101958.56
2023-05-05T00:33:03.374Z,101952.38
2023-05-05T00:35:32.860Z,101953.25
2023-05-05T00:38:01.733Z,101960.38
2023-05-05T00:40:31.001Z,101965.75
2023-05-05T00:43:01.119Z,101957.75
2023-05-05T00:45:31.272Z,101963.09
2023-05-05T00:48:01.191Z,101967.50
2023-05-05T00:50:31.221Z,101970.13
2023-05-05T00:53:02.849Z,101967.44
2023-05-05T00:55:32.589Z,101968.34
2023-05-05T00:58:04.065Z,101969.22
2023-05-05T01:00:33.474Z,101968.34
2023-05-05T01:03:03.298Z,101964.78
2023-05-05T01:05:38.433Z,101961.28
2023-05-05T01:08:14.771Z,101963.06
2023-05-05T01:10:46.693Z,101962.16
2023-05-05T01:13:22.499Z,101964.84
2023-05-05T01:15:54.513Z,101963.94
2023-05-05T01:18:30.133Z,101970.16
2023-05-05T01:21:03.209Z,101973.75
2023-05-05T01:23:44.760Z,101965.78
2023-05-05T01:26:22.832Z,101971.97
2023-05-05T01:29:02.496Z,101968.44
2023-05-05T01:31:43.713Z,101972.91
2023-05-05T01:34:16.672Z,101964.03
2023-05-05T01:36:50.799Z,101972.09
2023-05-05T01:39:21.121Z,101970.28
2023-05-05T01:41:52.279Z,101965.75
2023-05-05T01:44:21.735Z,101963.19
2023-05-05T01:46:53.266Z,101964.06
2023-05-05T01:49:22.433Z,101953.47
2023-05-05T01:51:52.749Z,101957.03
2023-05-05T01:54:23.824Z,101958.84
2023-05-05T01:56:54.026Z,101970.44
2023-05-05T01:59:24.511Z,101961.53
2023-05-05T02:01:56.409Z,101964.22
2023-05-05T02:04:26.025Z,101965.13
2023-05-05T02:06:57.035Z,101960.78
2023-05-05T02:09:26.660Z,101960.81
2023-05-05T02:11:57.959Z,101960.72
2023-05-05T02:14:29.936Z,101958.00
2023-05-05T02:17:01.510Z,101959.75
2023-05-05T02:19:31.558Z,101946.50
2023-05-05T02:22:01.003Z,101951.81
2023-05-05T02:24:30.926Z,101956.31
2023-05-05T02:27:01.089Z,101953.75
2023-05-05T02:29:32.390Z,101949.34
2023-05-05T02:32:05.269Z,101959.16
2023-05-05T02:34:36.546Z,101955.63
2023-05-05T02:37:09.875Z,101959.09
2023-05-05T02:39:43.728Z,101967.09
2023-05-05T02:42:19.698Z,101964.47
2023-05-05T02:44:51.954Z,101961.84
2023-05-05T02:47:23.293Z,101963.59
2023-05-05T02:49:54.081Z,101967.22
2023-05-05T02:52:23.346Z,101962.81
2023-05-05T02:54:52.575Z,101965.56
2023-05-05T02:57:27.731Z,101968.28
2023-05-05T03:00:06.871Z,101972.72
2023-05-05T03:02:46.102Z,101976.28
2023-05-05T03:05:19.732Z,101980.75
2023-05-05T03:07:51.988Z,101972.81
2023-05-05T03:10:22.594Z,101975.50
2023-05-05T03:12:56.328Z,101974.66
2023-05-05T03:15:32.624Z,101978.19
2023-05-05T03:18:05.164Z,101976.47
2023-05-05T03:20:34.738Z,101988.03
2023-05-05T03:23:09.033Z,101996.00
2023-05-05T03:25:45.012Z,101987.13
2023-05-05T03:28:20.556Z,101994.25
2023-05-05T03:30:49.550Z,101996.94
2023-05-05T03:33:21.904Z,101995.19
2023-05-05T03:35:50.944Z,101996.09
2023-05-05T03:38:21.101Z,102002.34
2023-05-05T03:40:50.244Z,102001.41
2023-05-05T03:43:22.917Z,102006.75
2023-05-05T03:45:51.731Z,102015.56
2023-05-05T03:48:23.097Z,102021.72
2023-05-05T03:50:54.010Z,102019.13
2023-05-05T03:53:25.542Z,102022.66
2023-05-05T03:55:54.466Z,102025.25
2023-05-05T03:58:23.647Z,102024.41
2023-05-05T04:00:52.683Z,102029.69
2023-05-05T04:03:24.458Z,102026.16
2023-05-05T04:05:54.050Z,102027.91
2023-05-05T04:08:24.058Z,102029.66
2023-05-05T04:10:53.064Z,102035.84
2023-05-05T04:13:22.854Z,102030.50
2023-05-05T04:15:52.060Z,102039.34
2023-05-05T04:18:22.112Z,102046.44
2023-05-05T04:20:53.446Z,102036.69
2023-05-05T04:23:22.611Z,102041.97
2023-05-05T04:25:52.075Z,102040.19
2023-05-05T04:28:22.135Z,102049.88
2023-05-05T04:30:51.620Z,102047.25
2023-05-05T04:33:20.793Z,102042.81
2023-05-05T04:35:51.539Z,102059.63
2023-05-05T04:38:22.821Z,102051.66
2023-05-05T04:40:51.964Z,102056.06
2023-05-05T04:43:21.033Z,102054.31
2023-05-05T04:45:53.454Z,102060.53
2023-05-05T04:48:24.535Z,102061.38
2023-05-05T04:50:54.020Z,102065.78
2023-05-05T04:53:24.457Z,102059.56
2023-05-05T04:55:53.280Z,102068.41
2023-05-05T04:58:22.360Z,102077.31
2023-05-05T05:00:51.200Z,102072.84
2023-05-05T05:03:21.389Z,102076.31
2023-05-05T05:05:50.468Z,102088.75
2023-05-05T05:08:19.752Z,102076.34
2023-05-05T05:10:49.985Z,102083.38
2023-05-05T05:13:19.488Z,102080.69
2023-05-05T05:15:48.486Z,102085.13
2023-05-05T05:18:17.565Z,102083.34
2023-05-05T05:20:47.179Z,102085.94
2023-05-05T05:23:16.807Z,102093.91
2023-05-05T05:25:46.582Z,102094.72
2023-05-05T05:28:19.364Z,102098.25
2023-05-05T05:30:53.185Z,102103.59
2023-05-05T05:33:23.042Z,102106.22
2023-05-05T05:35:52.979Z,102097.28
2023-05-05T05:38:23.656Z,102096.34
2023-05-05T05:40:55.639Z,102105.16
2023-05-05T05:43:27.206Z,102107.84
2023-05-05T05:45:56.171Z,102106.91
2023-05-05T05:48:28.540Z,102101.53
2023-05-05T05:50:58.230Z,102100.63
2023-05-05T05:53:28.031Z,102101.50
2023-05-05T05:55:57.387Z,102102.31
2023-05-05T05:58:27.997Z,102112.03
2023-05-05T06:00:59.164Z,102107.56
2023-05-05T06:03:28.949Z,102103.19
2023-05-05T06:05:59.042Z,102096.06
2023-05-05T06:08:28.529Z,102106.72
2023-05-05T06:11:00.613Z,102108.44
2023-05-05T06:13:31.363Z,102110.13
2023-05-05T06:16:00.424Z,102117.22
2023-05-05T06:18:29.876Z,102114.56
2023-05-05T06:20:58.815Z,102111.91
2023-05-05T06:23:30.056Z,102114.56
2023-05-05T06:26:03.970Z,102128.72
2023-05-05T06:28:34.380Z,102128.59
2023-05-05T06:31:03.675Z,102129.34
2023-05-05T06:33:33.059Z,102123.97
2023-05-05T06:36:01.964Z,102133.63
2023-05-05T06:38:31.094Z,102127.41
2023-05-05T06:40:59.928Z,102135.44
2023-05-05T06:43:29.782Z,102137.09
2023-05-05T06:46:03.083Z,102128.25
2023-05-05T06:48:32.605Z,102137.09
2023-05-05T06:51:01.622Z,102134.34
2023-05-05T06:53:30.873Z,102130.72
2023-05-05T06:55:59.757Z,102139.56
2023-05-05T06:58:28.883Z,102140.44
2023-05-05T07:00:57.889Z,102146.56
2023-05-05T07:03:29.830Z,102140.25
2023-05-05T07:05:58.651Z,102139.28
2023-05-05T07:08:27.906Z,102145.50
2023-05-05T07:10:56.829Z,102148.09
2023-05-05T07:13:25.838Z,102144.47
2023-05-05T07:15:54.689Z,102149.88
2023-05-05T07:18:23.898Z,102135.66
2023-05-05T07:20:54.029Z,102142.63
2023-05-05T07:23:23.153Z,102146.25
2023-05-05T07:25:51.992Z,102139.94
2023-05-05T07:28:22.411Z,102143.47
2023-05-05T07:30:52.108Z,102140.81
2023-05-05T07:33:21.261Z,102139.81
2023-05-05T07:35:50.133Z,102139.84
2023-05-05T07:38:20.698Z,102146.16
2023-05-05T07:40:49.553Z,102145.06
2023-05-05T07:43:18.672Z,102157.47
2023-05-05T07:45:47.678Z,102153.81
2023-05-05T07:48:16.749Z,102153.75
2023-05-05T07:50:45.656Z,102163.50
2023-05-05T07:53:15.371Z,102158.19
2023-05-05T07:55:45.682Z,102160.78
2023-05-05T07:58:14.810Z,102165.28
2023-05-05T08:00:44.166Z,102159.84
2023-05-05T08:03:13.435Z,102170.50
2023-05-05T08:05:42.246Z,102176.69
2023-05-05T08:08:11.461Z,102174.81
2023-05-05T08:10:40.203Z,102172.13
2023-05-05T08:13:10.671Z,102183.66
2023-05-05T08:15:39.727Z,102176.44
2023-05-05T08:18:08.863Z,102173.84
2023-05-05T08:20:38.104Z,102176.47
2023-05-05T08:23:07.278Z,102170.09
2023-05-05T08:25:36.086Z,102172.78
2023-05-05T08:28:05.344Z,102183.22
2023-05-05T08:30:35.698Z,102173.53
2023-05-05T08:33:04.995Z,102174.53
2023-05-05T08:35:33.785Z,102175.34
2023-05-05T08:38:02.856Z,102175.34
2023-05-05T08:40:34.205Z,102187.75
2023-05-05T08:43:04.067Z,102183.09
2023-05-05T08:45:33.312Z,102185.91
2023-05-05T08:48:05.054Z,102192.19
2023-05-05T08:50:34.576Z,102180.44
2023-05-05T08:53:09.329Z,102173.38
2023-05-05T08:55:42.826Z,102184.81
2023-05-05T08:58:12.109Z,102191.03
2023-05-05T09:00:42.659Z,102192.88
2023-05-05T09:03:13.822Z,102187.28
2023-05-05T09:05:43.380Z,102175.69
2023-05-05T09:08:12.647Z,102175.88
2023-05-05T09:10:42.117Z,102177.59
2023-05-05T09:13:11.375Z,102209.75
2023-05-05T09:15:42.657Z,102196.34
2023-05-05T09:18:13.497Z,102200.03
2023-05-05T09:20:42.427Z,102199.91
2023-05-05T09:23:12.119Z,102201.63
2023-05-05T09:25:41.370Z,102201.63
2023-05-05T09:28:11.470Z,102189.94
2023-05-05T09:30:40.952Z,102198.78
2023-05-05T09:33:10.257Z,102206.66
2023-05-05T09:35:53.487Z,102207.63
2023-05-05T09:38:24.340Z,102220.16
2023-05-05T09:40:53.859Z,102212.13
2023-05-05T09:43:24.186Z,102204.00
2023-05-05T09:45:53.027Z,102203.06
2023-05-05T09:48:26.442Z,102212.94
2023-05-05T09:50:57.042Z,102210.25
2023-05-05T09:53:27.312Z,102215.59
2023-05-05T09:55:56.627Z,102216.53
2023-05-05T09:58:26.404Z,102219.19
2023-05-05T10:00:55.787Z,102218.38
2023-05-05T10:03:25.497Z,102218.50
2023-05-05T10:05:57.733Z,102217.63
2023-05-05T10:08:27.910Z,102222.13
2023-05-05T10:10:59.620Z,102220.28
2023-05-05T10:13:28.909Z,102222.94
2023-05-05T10:15:58.518Z,102211.34
2023-05-05T10:18:28.558Z,102205.22
2023-05-05T10:20:59.870Z,102204.44
2023-05-05T10:23:35.404Z,102220.38
2023-05-05T10:26:06.772Z,102214.22
2023-05-05T10:28:38.456Z,102209.69
2023-05-05T10:31:23.856Z,102220.25
2023-05-05T10:33:56.023Z,102213.84
2023-05-05T10:36:27.979Z,102209.41
2023-05-05T10:38:58.326Z,102204.88
2023-05-05T10:41:27.342Z,102202.25
2023-05-05T10:43:57.663Z,102204.13
2023-05-05T10:46:27.935Z,102203.06
2023-05-05T10:49:00.841Z,102218.25
2023-05-05T10:51:40.652Z,102213.81
2023-05-05T10:54:15.092Z,102206.66
2023-05-05T10:56:44.085Z,102197.88
2023-05-05T10:59:31.538Z,102193.41
2023-05-05T11:02:00.524Z,102206.66
2023-05-05T11:04:31.117Z,102203.03
2023-05-05T11:07:18.895Z,102197.56
2023-05-05T11:10:01.901Z,102190.34
2023-05-05T11:12:33.794Z,102179.44
2023-05-05T11:15:24.485Z,102191.06
2023-05-05T11:17:56.304Z,102191.06
2023-05-05T11:20:41.197Z,102193.78
2023-05-05T11:23:25.500Z,102181.47
2023-05-05T11:25:57.844Z,102193.94
2023-05-05T11:28:29.870Z,102190.53
2023-05-05T11:31:18.683Z,102192.44
2023-05-05T11:33:47.851Z,102192.34
2023-05-05T11:36:18.813Z,102182.59
2023-05-05T11:39:05.524Z,102186.00
2023-05-05T11:41:47.080Z,102181.38
2023-05-05T11:44:18.475Z,102173.47
2023-05-05T11:47:17.840Z,102174.16
2023-05-05T11:49:47.526Z,102182.91
2023-05-05T11:52:16.709Z,102169.34
2023-05-05T11:54:48.746Z,102183.59
2023-05-05T11:57:21.893Z,102179.03
2023-05-05T11:59:52.912Z,102173.72
2023-05-05T12:02:22.850Z,102169.94
2023-05-05T12:04:52.677Z,102172.63
2023-05-05T12:07:22.597Z,102179.72
2023-05-05T12:09:52.548Z,102174.34
2023-05-05T12:12:34.201Z,102172.44
2023-05-05T12:15:05.140Z,102167.94
2023-05-05T12:17:38.799Z,102157.88
2023-05-05T12:20:10.334Z,102162.19
2023-05-05T12:22:40.411Z,102163.88
2023-05-05T12:25:11.314Z,102172.72
2023-05-05T12:27:42.641Z,102168.81
2023-05-05T12:30:14.780Z,102174.13
2023-05-05T12:32:44.760Z,102176.09
2023-05-05T12:35:14.548Z,102170.53
2023-05-05T12:37:44.171Z,102171.44
2023-05-05T12:40:31.943Z,102166.22
2023-05-05T12:43:02.632Z,102162.47
2023-05-05T12:45:31.575Z,102162.66
2023-05-05T12:48:01.989Z,102163.50
2023-05-05T12:50:31.300Z,102164.41
2023-05-05T12:53:00.994Z,102170.69
2023-05-05T12:55:40.134Z,102163.41
2023-05-05T12:58:11.685Z,102159.13
2023-05-05T13:00:41.411Z,102165.53
2023-05-05T13:03:19.931Z,102160.97
2023-05-05T13:05:49.058Z,102157.44
2023-05-05T13:08:20.903Z,102149.41
2023-05-05T13:10:59.265Z,102152.78
2023-05-05T13:13:32.866Z,102149.00
2023-05-05T13:16:01.797Z,102150.00
2023-05-05T13:18:30.835Z,102153.44
2023-05-05T13:20:59.695Z,102147.41
2023-05-05T13:23:28.879Z,102159.63
2023-05-05T13:25:57.757Z,102153.00
2023-05-05T13:28:29.586Z,102155.59
2023-05-05T13:30:59.385Z,102152.13
2023-05-05T13:33:30.785Z,102148.38
2023-05-05T13:35:59.616Z,102149.97
2023-05-05T13:38:31.135Z,102135.69
2023-05-05T13:41:00.314Z,102133.69
2023-05-05T13:43:30.739Z,102132.25
2023-05-05T13:46:12.319Z,102126.16
2023-05-05T13:48:48.106Z,102132.28
2023-05-05T13:51:17.671Z,102129.94
2023-05-05T13:53:47.667Z,102123.75
2023-05-05T13:56:18.141Z,102125.13
2023-05-05T13:58:51.255Z,102135.59
2023-05-05T14:01:20.328Z,102119.44
2023-05-05T14:03:49.383Z,102116.25
2023-05-05T14:06:18.666Z,102115.91
2023-05-05T14:08:47.755Z,102130.88
2023-05-05T14:11:18.569Z,102122.41
2023-05-05T14:13:50.207Z,102131.09
2023-05-05T14:16:19.108Z,102128.69
2023-05-05T14:18:48.195Z,102133.56
2023-05-05T14:21:17.258Z,102134.00
2023-05-05T14:23:46.570Z,102130.34
2023-05-05T14:26:16.717Z,102128.22
2023-05-05T14:28:48.990Z,102131.56
2023-05-05T14:31:27.527Z,102132.19
2023-05-05T14:33:57.813Z,102126.88
2023-05-05T14:36:26.874Z,102130.69
2023-05-05T14:38:56.040Z,102131.53
2023-05-05T14:41:25.153Z,102139.16
2023-05-05T14:43:54.155Z,102152.63
2023-05-05T14:46:24.460Z,102139.13
2023-05-05T14:48:53.792Z,102138.88
2023-05-05T14:51:23.536Z,102131.03
2023-05-05T14:53:52.685Z,102133.66
2023-05-05T14:56:21.940Z,102134.13
2023-05-05T14:58:51.343Z,102146.97
2023-05-05T15:01:20.665Z,102128.88
2023-05-05T15:03:52.099Z,102126.53
2023-05-05T15:06:22.160Z,102129.47
2023-05-05T15:08:51.400Z,102130.19
2023-05-05T15:11:20.268Z,102131.03
2023-05-05T15:13:49.428Z,102134.38
2023-05-05T15:16:18.717Z,102132.84
2023-05-05T15:18:48.005Z,102123.75
2023-05-05T15:21:19.601Z,102123.13
2023-05-05T15:23:50.013Z,102119.06
2023-05-05T15:26:18.952Z,102115.69
2023-05-05T15:28:50.494Z,102115.91
2023-05-05T15:31:19.576Z,102118.63
2023-05-05T15:33:51.137Z,102113.81
2023-05-05T15:36:22.745Z,102132.81
2023-05-05T15:38:51.999Z,102118.91
2023-05-05T15:41:20.858Z,102118.38
2023-05-05T15:43:52.553Z,102118.75
2023-05-05T15:46:21.576Z,102114.88
2023-05-05T15:48:50.729Z,102115.91
2023-05-05T15:51:19.488Z,102111.75
2023-05-05T15:53:54.384Z,102111.19
2023-05-05T15:56:23.719Z,102108.72
2023-05-05T15:58:52.760Z,102110.31
2023-05-05T16:01:22.163Z,102114.09
2023-05-05T16:03:51.837Z,102111.88
2023-05-05T16:06:20.706Z,102109.44
2023-05-05T16:08:52.432Z,102115.50
2023-05-05T16:11:22.523Z,102110.41
2023-05-05T16:13:51.700Z,102110.41
2023-05-05T16:16:20.474Z,102111.59
2023-05-05T16:18:50.122Z,102109.50
2023-05-05T16:21:19.165Z,102115.22
2023-05-05T16:23:48.578Z,102111.56
2023-05-05T16:26:19.099Z,102109.03
2023-05-05T16:28:48.622Z,102105.41
2023-05-05T16:31:17.546Z,102106.38
2023-05-05T16:33:46.740Z,102099.03
2023-05-05T16:36:16.055Z,102096.84
2023-05-05T16:38:45.114Z,102105.34
2023-05-05T16:41:14.020Z,102085.16
2023-05-05T16:43:44.506Z,102092.03
2023-05-05T16:46:16.369Z,102080.28
2023-05-05T16:48:46.852Z,102090.69
2023-05-05T16:51:15.553Z,102078.88
2023-05-05T16:53:44.568Z,102080.97
2023-05-05T16:56:13.817Z,102096.84
2023-05-05T16:58:44.239Z,102083.34
2023-05-05T17:01:13.126Z,102081.47
2023-05-05T17:03:42.159Z,102082.72
2023-05-05T17:06:12.996Z,102079.63
2023-05-05T17:08:42.117Z,102075.66
2023-05-05T17:11:11.934Z,102081.44
2023-05-05T17:13:41.266Z,102082.56
2023-05-05T17:16:11.387Z,102078.16
2023-05-05T17:18:40.435Z,102071.16
2023-05-05T17:21:09.408Z,102074.94
2023-05-05T17:23:38.544Z,102068.88
2023-05-05T17:26:07.481Z,102070.34
2023-05-05T17:28:36.795Z,102072.56
2023-05-05T17:31:05.776Z,102070.75
2023-05-05T17:33:36.172Z,102073.19
2023-05-05T17:36:05.304Z,102076.19
2023-05-05T17:38:34.401Z,102064.09
2023-05-05T17:41:03.305Z,102066.72
2023-05-05T17:43:32.317Z,102069.38
2023-05-05T17:46:01.290Z,102075.91
2023-05-05T17:48:30.594Z,102074.13
2023-05-05T17:51:00.828Z,102074.41
2023-05-05T17:53:29.855Z,102081.72
2023-05-05T17:55:58.734Z,102077.88
2023-05-05T17:58:27.877Z,102081.47
2023-05-05T18:00:56.702Z,102080.00
2023-05-05T18:03:26.214Z,102085.81
2023-05-05T18:05:55.149Z,102084.75
2023-05-05T18:08:25.672Z,102084.94
2023-05-05T18:10:54.685Z,102088.56
2023-05-05T18:13:23.703Z,102083.19
2023-05-05T18:15:52.663Z,102094.00
2023-05-05T18:18:22.208Z,102080.63
2023-05-05T18:20:51.073Z,102093.50
2023-05-05T18:23:21.443Z,102079.41
2023-05-05T18:25:51.563Z,102085.78
2023-05-05T18:28:20.920Z,102085.81
2023-05-05T18:30:49.773Z,102082.44
2023-05-05T18:33:18.927Z,102075.59
2023-05-05T18:35:47.642Z,102076.53
2023-05-05T18:38:16.978Z,102080.19
2023-05-05T18:40:45.916Z,102085.41
2023-05-05T18:43:16.426Z,102081.09
2023-05-05T18:45:46.588Z,102077.53
2023-05-05T18:48:16.508Z,102087.38
2023-05-05T18:50:45.786Z,102076.00
2023-05-05T18:53:16.651Z,102083.06
2023-05-05T18:55:47.115Z,102075.16
2023-05-05T18:58:17.660Z,102082.22
2023-05-05T19:00:46.593Z,102084.03
2023-05-05T19:03:15.644Z,102081.34
2023-05-05T19:05:44.607Z,102086.81
2023-05-05T19:08:13.670Z,102081.50
2023-05-05T19:10:42.646Z,102076.16
2023-05-05T19:13:11.880Z,102077.94
2023-05-05T19:15:46.097Z,102070.94
2023-05-05T19:18:18.508Z,102068.31
2023-05-05T19:20:47.644Z,102066.50
2023-05-05T19:23:17.133Z,102058.56
2023-05-05T19:25:46.393Z,102056.84
2023-05-05T19:28:16.214Z,102071.03
2023-05-05T19:30:48.566Z,102072.88
2023-05-05T19:33:18.141Z,102070.19
2023-05-05T19:35:46.867Z,102065.72
2023-05-05T19:38:16.378Z,102069.38
2023-05-05T19:40:45.128Z,102074.72
2023-05-05T19:43:15.182Z,102067.63
2023-05-05T19:45:43.995Z,102066.72
2023-05-05T19:48:16.225Z,102066.78
2023-05-05T19:50:45.485Z,102069.44
2023-05-05T19:53:14.657Z,102073.00
2023-05-05T19:55:43.443Z,102071.25
2023-05-05T19:58:12.872Z,102072.13
2023-05-05T20:00:42.434Z,102079.19
2023-05-05T20:03:13.752Z,102078.34
2023-05-05T20:05:44.190Z,102080.13
2023-05-05T20:08:13.449Z,102070.38
2023-05-05T20:10:43.697Z,102081.03
2023-05-05T20:13:16.798Z,102084.59
2023-05-05T20:15:46.060Z,102088.16
2023-05-05T20:18:15.390Z,102079.31
2023-05-05T20:20:45.763Z,102081.97
2023-05-05T20:23:14.965Z,102083.69
2023-05-05T20:25:43.998Z,102088.19
2023-05-05T20:28:13.224Z,102074.00
2023-05-05T20:30:42.126Z,102072.25
2023-05-05T20:33:11.369Z,102073.13
2023-05-05T20:35:41.118Z,102069.63
2023-05-05T20:38:11.835Z,102075.88
2023-05-05T20:40:41.396Z,102070.53
2023-05-05T20:43:12.779Z,102071.41
2023-05-05T20:45:42.988Z,102063.44
2023-05-05T20:48:12.176Z,102063.47
2023-05-05T20:50:41.425Z,102056.41
2023-05-05T20:53:13.841Z,102049.28
2023-05-05T20:55:42.748Z,102046.66
2023-05-05T20:58:11.768Z,102048.47
2023-05-05T21:00:40.823Z,102038.72
2023-05-05T21:03:11.647Z,102045.81
2023-05-05T21:05:41.401Z,102053.78
2023-05-05T21:08:11.110Z,102054.69
2023-05-05T21:10:42.208Z,102054.69
2023-05-05T21:13:12.083Z,102040.47
2023-05-05T21:15:41.394Z,102044.03
2023-05-05T21:18:10.568Z,102036.97
2023-05-05T21:20:39.692Z,102038.75
2023-05-05T21:23:08.770Z,102036.06
2023-05-05T21:25:39.229Z,102036.97
2023-05-05T21:28:11.059Z,102044.06
2023-05-05T21:30:39.988Z,102042.28
2023-05-05T21:33:09.352Z,102054.69
2023-05-05T21:35:39.267Z,102052.00
2023-05-05T21:38:08.345Z,102052.03
2023-05-05T21:40:37.580Z,102044.06
2023-05-05T21:43:07.401Z,102040.53
2023-05-05T21:45:37.658Z,102039.63
2023-05-05T21:48:07.112Z,102028.16
2023-05-05T21:50:37.189Z,102040.53
2023-05-05T21:53:06.384Z,102023.72
2023-05-05T21:55:35.143Z,102028.13
2023-05-05T21:58:04.193Z,102029.91
2023-05-05T22:00:33.344Z,102015.75
2023-05-05T22:03:04.047Z,102014.91
2023-05-05T22:05:32.943Z,102018.41
2023-05-05T22:08:01.948Z,102022.88
2023-05-05T22:10:30.833Z,102022.84
2023-05-05T22:12:59.991Z,102013.13
2023-05-05T22:15:35.656Z,102017.53
2023-05-05T22:18:13.584Z,102021.09
2023-05-05T22:20:42.666Z,102030.81
2023-05-05T22:23:11.786Z,102029.94
2023-05-05T22:25:40.719Z,102033.47
2023-05-05T22:28:09.738Z,102031.72
2023-05-05T22:30:38.770Z,102034.38
2023-05-05T22:33:08.074Z,102037.91
2023-05-05T22:35:38.639Z,102027.28
2023-05-05T22:38:07.893Z,102031.72
2023-05-05T22:40:37.000Z,102021.97
2023-05-05T22:43:06.229Z,102021.09
2023-05-05T22:45:34.973Z,102032.59
2023-05-05T22:48:04.296Z,102026.41
2023-05-05T22:50:33.048Z,102023.75
2023-05-05T22:53:03.708Z,102016.69
2023-05-05T22:55:32.577Z,102018.47
2023-05-05T22:58:01.635Z,102015.81
2023-05-05T23:00:30.856Z,102012.22
2023-05-05T23:02:59.941Z,102005.13
2023-05-05T23:05:28.920Z,101999.84
2023-05-05T23:08:00.045Z,102011.31
2023-05-05T23:10:30.298Z,102002.50
2023-05-05T23:12:59.573Z,102002.50
2023-05-05T23:15:28.762Z,101991.00
2023-05-05T23:17:58.065Z,101993.63
2023-05-05T23:20:26.845Z,101987.47
2023-05-05T23:22:56.304Z,101987.47
2023-05-05T23:25:25.048Z,101979.50
2023-05-05T23:27:55.609Z,101991.88
2023-05-05T23:30:24.478Z,101991.88
2023-05-05T23:32:54.365Z,101991.84
2023-05-05T23:35:23.316Z,101975.94
2023-05-05T23:37:52.349Z,101981.22
2023-05-05T23:40:21.259Z,101967.97
2023-05-05T23:42:50.364Z,101971.47
2023-05-05T23:45:20.613Z,101960.00
2023-05-05T23:47:49.910Z,101968.81
2023-05-05T23:50:18.632Z,101972.34
2023-05-05T23:52:47.832Z,101970.53
2023-05-05T23:55:16.562Z,101974.06
2023-05-05T23:57:45.770Z,101971.38
